Terminal Aerodrome Forecast
Issued by NWS

Home | Current Version | Previous Version | Text Only | Print | Product List | Glossary On
Versions: 1 2 3 4 5 6 7 8 9 10 11 12 13 14 15 16 17 18 19
000
FTUS43 KMQT 012320
TAFSAW
TAF
KSAW 012320Z 0200/0224 11003KT P6SM BKN060
     FM020100 00000KT P6SM SCT080
     FM020500 00000KT 5SM BR FEW200
     FM020900 00000KT 1 1/2SM BR BKN030
     FM021100 00000KT 1/2SM FG SCT035
     FM021300 00000KT 4SM BR SCT070
     FM021400 00000KT P6SM SCT120
     FM021900 06006KT P6SM SCT130=

USA.gov is the U.S. government's official web portal to all federal, state and local government web resources and services.